createdAt,value
2022-09-28T00:01:23.730Z,98049.11
2022-09-28T00:03:54.009Z,98047.73
2022-09-28T00:06:23.936Z,98045.17
2022-09-28T00:08:51.187Z,98040.18
2022-09-28T00:11:20.287Z,98037.24
2022-09-28T00:13:53.365Z,98032.58
2022-09-28T00:16:24.010Z,98027.09
2022-09-28T00:18:51.862Z,98020.73
2022-09-28T00:21:21.787Z,98015.96
2022-09-28T00:24:11.144Z,98013.45
2022-09-28T00:26:49.325Z,98013.45
2022-09-28T00:29:22.445Z,98009.83
2022-09-28T00:32:00.111Z,98010.58
2022-09-28T00:34:37.896Z,98009.82
2022-09-28T00:37:08.366Z,98009.66
2022-09-28T00:39:37.883Z,98010.98
2022-09-28T00:42:15.405Z,98005.95
2022-09-28T00:44:47.959Z,98003.98
2022-09-28T00:47:42.117Z,98004.17
2022-09-28T00:50:20.353Z,98004.65
2022-09-28T00:52:57.829Z,98007.41
2022-09-28T00:55:34.634Z,98004.89
2022-09-28T00:58:08.532Z,98003.13
2022-09-28T01:00:36.048Z,98001.98
2022-09-28T01:03:04.190Z,98000.37
2022-09-28T01:05:32.922Z,98001.61
2022-09-28T01:08:01.778Z,98003.34
2022-09-28T01:10:31.207Z,98003.81
2022-09-28T01:12:58.759Z,97998.58
2022-09-28T01:15:27.647Z,97998.67
2022-09-28T01:18:12.813Z,97999.27
2022-09-28T01:20:56.767Z,97995.25
2022-09-28T01:23:42.339Z,97994.21
2022-09-28T01:26:38.856Z,97991.30
2022-09-28T01:29:16.019Z,97986.61
2022-09-28T01:31:49.109Z,97985.23
2022-09-28T01:34:28.326Z,97988.95
2022-09-28T01:36:58.675Z,97993.27
2022-09-28T01:39:42.330Z,97992.05
2022-09-28T01:42:20.588Z,97995.23
2022-09-28T01:44:51.582Z,97990.86
2022-09-28T01:47:22.757Z,97994.56
2022-09-28T01:50:02.628Z,97990.65
2022-09-28T01:52:40.520Z,97994.03
2022-09-28T01:55:18.740Z,97989.90
2022-09-28T01:57:52.331Z,97985.01
2022-09-28T02:00:24.683Z,97980.70
2022-09-28T02:03:00.302Z,97981.20
2022-09-28T02:05:34.151Z,97983.89
2022-09-28T02:08:27.906Z,97977.92
2022-09-28T02:11:01.633Z,97975.55
2022-09-28T02:13:33.285Z,97977.48
2022-09-28T02:16:06.065Z,97973.98
2022-09-28T02:18:33.890Z,97976.30
2022-09-28T02:21:13.049Z,97973.39
2022-09-28T02:23:51.063Z,97974.59
2022-09-28T02:26:22.721Z,97972.30
2022-09-28T02:28:49.437Z,97974.39
2022-09-28T02:31:16.293Z,97974.04
2022-09-28T02:33:45.551Z,97972.19
2022-09-28T02:36:12.738Z,97971.23
2022-09-28T02:38:39.583Z,97969.08
2022-09-28T02:41:36.839Z,97968.98
2022-09-28T02:44:36.245Z,97968.68
2022-09-28T02:47:08.165Z,97969.53
2022-09-28T02:49:34.830Z,97971.29
2022-09-28T02:52:49.319Z,97970.99
2022-09-28T02:55:29.805Z,97968.08
2022-09-28T02:58:06.359Z,97966.61
2022-09-28T03:00:44.194Z,97965.63
2022-09-28T03:03:11.167Z,97965.72
2022-09-28T03:06:04.981Z,97964.17
2022-09-28T03:08:47.189Z,97965.73
2022-09-28T03:11:24.786Z,97960.78
2022-09-28T03:13:51.648Z,97954.63
2022-09-28T03:16:19.925Z,97955.16
2022-09-28T03:18:47.035Z,97959.42
2022-09-28T03:21:15.451Z,97955.13
2022-09-28T03:23:43.050Z,97952.58
2022-09-28T03:26:14.041Z,97952.77
2022-09-28T03:28:41.099Z,97946.92
2022-09-28T03:31:08.375Z,97946.93
2022-09-28T03:33:35.869Z,97944.89
2022-09-28T03:36:03.085Z,97947.16
2022-09-28T03:38:30.080Z,97944.64
2022-09-28T03:40:59.854Z,97942.11
2022-09-28T03:43:29.374Z,97943.67
2022-09-28T03:46:01.287Z,97945.55
2022-09-28T03:48:34.260Z,97945.02
2022-09-28T03:51:04.980Z,97943.65
2022-09-28T03:53:33.123Z,97940.36
2022-09-28T03:56:12.105Z,97940.05
2022-09-28T03:58:41.899Z,97940.76
2022-09-28T04:01:18.175Z,97936.61
2022-09-28T04:03:46.705Z,97938.89
2022-09-28T04:06:14.535Z,97938.38
2022-09-28T04:08:43.019Z,97930.92
2022-09-28T04:11:09.926Z,97930.88
2022-09-28T04:13:39.839Z,97927.33
2022-09-28T04:16:07.208Z,97929.42
2022-09-28T04:18:34.820Z,97928.92
2022-09-28T04:21:13.910Z,97926.15
2022-09-28T04:23:41.031Z,97922.85
2022-09-28T04:26:16.333Z,97924.05
2022-09-28T04:29:06.589Z,97923.41
2022-09-28T04:31:42.304Z,97924.21
2022-09-28T04:34:10.352Z,97920.55
2022-09-28T04:36:37.307Z,97923.57
2022-09-28T04:39:05.059Z,97923.67
2022-09-28T04:41:32.369Z,97927.83
2022-09-28T04:43:59.185Z,97929.13
2022-09-28T04:46:26.067Z,97929.30
2022-09-28T04:48:52.863Z,97929.70
2022-09-28T04:51:19.778Z,97927.52
2022-09-28T04:53:46.833Z,97928.45
2022-09-28T04:56:15.606Z,97926.53
2022-09-28T04:58:42.477Z,97924.79
2022-09-28T05:01:13.777Z,97926.19
2022-09-28T05:03:41.393Z,97926.86
2022-09-28T05:06:08.653Z,97926.44
2022-09-28T05:08:35.855Z,97927.14
2022-09-28T05:11:05.607Z,97926.52
2022-09-28T05:13:40.272Z,97920.30
2022-09-28T05:16:08.764Z,97921.44
2022-09-28T05:18:35.731Z,97916.62
2022-09-28T05:21:02.867Z,97918.40
2022-09-28T05:23:29.606Z,97917.52
2022-09-28T05:26:01.250Z,97915.80
2022-09-28T05:28:33.427Z,97915.57
2022-09-28T05:31:02.721Z,97917.34
2022-09-28T05:33:30.519Z,97918.11
2022-09-28T05:36:01.104Z,97919.88
2022-09-28T05:38:30.010Z,97919.57
2022-09-28T05:40:57.066Z,97917.09
2022-09-28T05:43:23.992Z,97915.17
2022-09-28T05:45:55.376Z,97920.44
2022-09-28T05:48:22.555Z,97923.36
2022-09-28T05:50:52.589Z,97926.84
2022-09-28T05:53:20.021Z,97927.65
2022-09-28T05:55:47.272Z,97928.41
2022-09-28T05:58:14.357Z,97929.51
2022-09-28T06:00:41.305Z,97930.39
2022-09-28T06:03:11.606Z,97932.73
2022-09-28T06:05:39.633Z,97930.85
2022-09-28T06:08:09.897Z,97931.14
2022-09-28T06:10:37.688Z,97929.11
2022-09-28T06:13:05.977Z,97928.35
2022-09-28T06:15:35.130Z,97926.74
2022-09-28T06:18:11.169Z,97927.30
2022-09-28T06:20:42.308Z,97930.57
2022-09-28T06:23:09.825Z,97931.48
2022-09-28T06:25:36.717Z,97931.64
2022-09-28T06:28:06.757Z,97934.14
2022-09-28T06:30:38.020Z,97936.98
2022-09-28T06:33:05.860Z,97930.50
2022-09-28T06:35:34.400Z,97929.41
2022-09-28T06:38:01.990Z,97921.65
2022-09-28T06:40:29.255Z,97918.14
2022-09-28T06:43:01.611Z,97919.45
2022-09-28T06:45:30.111Z,97918.67
2022-09-28T06:47:58.945Z,97910.70
2022-09-28T06:50:34.019Z,97906.34
2022-09-28T06:53:01.452Z,97905.20
2022-09-28T06:55:28.861Z,97899.60
2022-09-28T06:58:00.866Z,97893.58
2022-09-28T07:00:30.569Z,97889.30
2022-09-28T07:02:57.457Z,97890.41
2022-09-28T07:05:28.915Z,97891.05
2022-09-28T07:07:57.092Z,97890.22
2022-09-28T07:10:27.322Z,97889.46
2022-09-28T07:13:02.339Z,97891.19
2022-09-28T07:15:29.761Z,97886.77
2022-09-28T07:18:02.597Z,97889.87
2022-09-28T07:20:36.850Z,97887.59
2022-09-28T07:23:19.470Z,97889.46
2022-09-28T07:25:49.643Z,97890.13
2022-09-28T07:28:16.865Z,97888.85
2022-09-28T07:30:44.292Z,97894.73
2022-09-28T07:33:13.895Z,97895.39
2022-09-28T07:35:41.926Z,97899.40
2022-09-28T07:38:10.576Z,97903.50
2022-09-28T07:40:55.954Z,97898.64
2022-09-28T07:43:23.023Z,97898.55
2022-09-28T07:45:54.407Z,97899.48
2022-09-28T07:48:22.447Z,97889.48
2022-09-28T07:50:57.577Z,97884.33
2022-09-28T07:53:25.193Z,97886.33
2022-09-28T07:56:01.508Z,97881.55
2022-09-28T07:58:28.868Z,97878.85
2022-09-28T08:00:56.044Z,97877.42
2022-09-28T08:03:23.333Z,97874.96
2022-09-28T08:05:50.294Z,97873.52
2022-09-28T08:08:20.300Z,97868.27
2022-09-28T08:10:47.707Z,97871.33
2022-09-28T08:13:15.870Z,97874.09
2022-09-28T08:15:43.114Z,97872.34
2022-09-28T08:18:12.979Z,97867.32
2022-09-28T08:20:58.156Z,97861.66
2022-09-28T08:23:25.421Z,97860.19
2022-09-28T08:25:54.291Z,97857.70
2022-09-28T08:28:23.627Z,97853.86
2022-09-28T08:30:51.294Z,97858.52
2022-09-28T08:33:20.773Z,97854.56
2022-09-28T08:35:54.647Z,97862.77
2022-09-28T08:38:30.735Z,97862.48
2022-09-28T08:41:16.543Z,97860.69
2022-09-28T08:43:43.552Z,97851.19
2022-09-28T08:46:14.282Z,97849.08
2022-09-28T08:49:13.313Z,97855.17
2022-09-28T08:52:03.189Z,97865.84
2022-09-28T08:55:10.922Z,97880.88
2022-09-28T08:57:49.179Z,97881.02
2022-09-28T09:00:41.145Z,97875.95
2022-09-28T09:03:19.661Z,97880.36
2022-09-28T09:05:55.526Z,97879.13
2022-09-28T09:09:00.832Z,97879.77
2022-09-28T09:12:04.815Z,97876.85
2022-09-28T09:15:02.369Z,97870.58
2022-09-28T09:17:48.511Z,97864.93
2022-09-28T09:20:31.417Z,97861.78
2022-09-28T09:22:59.376Z,97857.35
2022-09-28T09:25:34.325Z,97851.54
2022-09-28T09:28:34.798Z,97858.39
2022-09-28T09:31:13.839Z,97854.38
2022-09-28T09:33:48.124Z,97854.13
2022-09-28T09:37:05.897Z,97856.04
2022-09-28T09:40:17.613Z,97852.69
2022-09-28T09:42:53.523Z,97851.05
2022-09-28T09:45:29.731Z,97851.96
2022-09-28T09:48:24.808Z,97854.28
2022-09-28T09:51:00.554Z,97853.14
2022-09-28T09:53:44.112Z,97851.35
2022-09-28T09:56:23.484Z,97850.57
2022-09-28T09:58:57.032Z,97850.27
2022-09-28T10:01:41.362Z,97848.12
2022-09-28T10:04:15.244Z,97844.73
2022-09-28T10:06:43.393Z,97845.02
2022-09-28T10:09:22.020Z,97840.86
2022-09-28T10:11:49.701Z,97842.03
2022-09-28T10:14:20.900Z,97842.08
2022-09-28T10:16:57.662Z,97841.95
2022-09-28T10:19:32.462Z,97842.19
2022-09-28T10:22:06.380Z,97839.86
2022-09-28T10:24:39.117Z,97841.13
2022-09-28T10:27:12.945Z,97839.30
2022-09-28T10:29:55.046Z,97836.67
2022-09-28T10:32:25.466Z,97836.58
2022-09-28T10:35:10.456Z,97834.23
2022-09-28T10:38:22.490Z,97831.18
2022-09-28T10:40:55.333Z,97833.97
2022-09-28T10:44:10.476Z,97834.24
2022-09-28T10:46:38.493Z,97831.23
2022-09-28T10:49:16.245Z,97832.45
2022-09-28T10:51:53.113Z,97832.60
2022-09-28T10:54:28.456Z,97829.63
2022-09-28T10:56:57.252Z,97832.10
2022-09-28T10:59:33.445Z,97827.36
2022-09-28T11:02:03.957Z,97830.34
2022-09-28T11:04:40.567Z,97825.94
2022-09-28T11:07:26.364Z,97832.84
2022-09-28T11:09:54.867Z,97833.63
2022-09-28T11:12:26.412Z,97827.10
2022-09-28T11:15:01.677Z,97827.09
2022-09-28T11:17:32.617Z,97827.77
2022-09-28T11:20:17.650Z,97824.11
2022-09-28T11:22:45.695Z,97818.15
2022-09-28T11:25:25.055Z,97821.59
2022-09-28T11:28:03.957Z,97822.11
2022-09-28T11:30:50.758Z,97818.61
2022-09-28T11:33:24.975Z,97815.65
2022-09-28T11:36:11.796Z,97817.24
2022-09-28T11:39:16.023Z,97811.20
2022-09-28T11:42:01.656Z,97806.66
2022-09-28T11:44:46.596Z,97806.02
2022-09-28T11:47:44.332Z,97803.89
2022-09-28T11:50:23.682Z,97805.97
2022-09-28T11:52:59.754Z,97808.42
2022-09-28T11:55:55.500Z,97810.17
2022-09-28T11:58:48.905Z,97808.70
2022-09-28T12:01:37.797Z,97811.96
2022-09-28T12:04:21.159Z,97813.70
2022-09-28T12:06:58.529Z,97817.94
2022-09-28T12:09:37.954Z,97834.70
2022-09-28T12:12:30.111Z,97839.45
2022-09-28T12:15:01.860Z,97843.60
2022-09-28T12:17:43.266Z,97845.67
2022-09-28T12:20:30.362Z,97845.20
2022-09-28T12:23:28.827Z,97843.73
2022-09-28T12:26:05.795Z,97842.31
2022-09-28T12:29:11.570Z,97837.30
2022-09-28T12:31:50.658Z,97834.05
2022-09-28T12:34:18.234Z,97835.25
2022-09-28T12:37:08.001Z,97834.83
2022-09-28T12:39:58.751Z,97835.88
2022-09-28T12:42:43.799Z,97832.13
2022-09-28T12:45:38.768Z,97833.22
2022-09-28T12:48:41.270Z,97831.30
2022-09-28T12:51:35.223Z,97835.72
2022-09-28T12:54:38.550Z,97833.20
2022-09-28T12:57:23.270Z,97831.00
2022-09-28T13:00:15.115Z,97830.46
2022-09-28T13:02:50.444Z,97835.23
2022-09-28T13:05:36.797Z,97832.80
2022-09-28T13:08:21.439Z,97833.05
2022-09-28T13:11:28.598Z,97830.32
2022-09-28T13:14:22.414Z,97825.90
2022-09-28T13:17:22.160Z,97827.59
2022-09-28T13:20:03.817Z,97825.10
2022-09-28T13:23:08.952Z,97817.77
2022-09-28T13:26:07.185Z,97820.46
2022-09-28T13:28:38.509Z,97820.25
2022-09-28T13:31:29.238Z,97821.38
2022-09-28T13:34:20.164Z,97823.18
2022-09-28T13:37:19.439Z,97820.33
2022-09-28T13:40:19.178Z,97822.40
2022-09-28T13:43:24.862Z,97819.32
2022-09-28T13:45:54.644Z,97819.98
2022-09-28T13:48:38.864Z,97820.03
2022-09-28T13:51:25.558Z,97820.27
2022-09-28T13:53:52.248Z,97816.11
2022-09-28T13:56:25.898Z,97817.14
2022-09-28T13:59:17.024Z,97818.84
2022-09-28T14:01:55.254Z,97820.96
2022-09-28T14:04:50.043Z,97822.91
2022-09-28T14:07:44.090Z,97826.24
2022-09-28T14:10:21.091Z,97825.78
2022-09-28T14:12:53.657Z,97824.48
2022-09-28T14:15:43.466Z,97822.55
2022-09-28T14:18:32.997Z,97821.41
2022-09-28T14:21:25.883Z,97822.63
2022-09-28T14:24:01.805Z,97819.55
2022-09-28T14:26:58.401Z,97817.61
2022-09-28T14:29:34.061Z,97820.88
2022-09-28T14:32:22.216Z,97822.52
2022-09-28T14:34:59.360Z,97818.61
2022-09-28T14:37:57.824Z,97820.46
2022-09-28T14:40:50.814Z,97821.29
2022-09-28T14:43:27.577Z,97821.20
2022-09-28T14:46:12.888Z,97822.29
2022-09-28T14:48:50.447Z,97822.34
2022-09-28T14:51:26.891Z,97824.15
2022-09-28T14:55:06.765Z,97823.68
2022-09-28T14:57:53.335Z,97819.39
2022-09-28T15:00:31.717Z,97822.19
2022-09-28T15:04:01.962Z,97825.19
2022-09-28T15:07:59.188Z,97825.50
2022-09-28T15:11:22.726Z,97822.36
2022-09-28T15:14:27.769Z,97821.20
2022-09-28T15:17:23.658Z,97825.16
2022-09-28T15:20:33.521Z,97828.05
2022-09-28T15:23:47.765Z,97823.20
2022-09-28T15:26:53.145Z,97821.20
2022-09-28T15:29:33.775Z,97823.39
2022-09-28T15:32:03.647Z,97825.50
2022-09-28T15:35:22.479Z,97829.75
2022-09-28T15:38:30.807Z,97830.95
2022-09-28T15:41:19.634Z,97829.05
2022-09-28T15:44:33.095Z,97833.90
2022-09-28T15:48:00.794Z,97835.63
2022-09-28T15:51:23.925Z,97843.03
2022-09-28T15:54:41.357Z,97850.27
2022-09-28T15:58:00.877Z,97853.73
2022-09-28T16:01:36.564Z,97854.33
2022-09-28T16:05:08.810Z,97861.34
2022-09-28T16:07:38.837Z,97868.05
2022-09-28T16:11:06.689Z,97867.63
2022-09-28T16:13:46.656Z,97868.43
2022-09-28T16:16:33.144Z,97869.37
2022-09-28T16:19:52.084Z,97869.89
2022-09-28T16:23:13.338Z,97869.20
2022-09-28T16:26:01.568Z,97868.24
2022-09-28T16:29:00.809Z,97870.05
2022-09-28T16:31:43.510Z,97872.70
2022-09-28T16:34:23.551Z,97874.38
2022-09-28T16:37:35.242Z,97882.58
2022-09-28T16:40:03.716Z,97884.35
2022-09-28T16:42:31.734Z,97885.77
2022-09-28T16:45:05.687Z,97886.81
2022-09-28T16:47:36.007Z,97892.83
2022-09-28T16:50:06.625Z,97888.91
2022-09-28T16:52:53.315Z,97896.56
2022-09-28T16:55:40.531Z,97898.63
2022-09-28T16:58:15.692Z,97896.66
2022-09-28T17:00:55.308Z,97899.21
2022-09-28T17:03:26.390Z,97898.16
2022-09-28T17:06:04.272Z,97901.24
2022-09-28T17:09:06.250Z,97902.09
2022-09-28T17:11:36.177Z,97904.23
2022-09-28T17:14:08.429Z,97906.04
2022-09-28T17:17:06.754Z,97913.10
2022-09-28T17:19:33.177Z,97917.23
2022-09-28T17:22:01.359Z,97926.34
2022-09-28T17:24:28.691Z,97929.07
2022-09-28T17:27:15.810Z,97932.80
2022-09-28T17:30:23.784Z,97936.49
2022-09-28T17:33:21.131Z,97944.91
2022-09-28T17:35:52.947Z,97948.58
2022-09-28T17:38:20.155Z,97951.58
2022-09-28T17:40:47.666Z,97957.17
2022-09-28T17:43:17.845Z,97963.41
2022-09-28T17:45:50.160Z,97964.14
2022-09-28T17:48:27.588Z,97966.61
2022-09-28T17:50:54.479Z,97972.33
2022-09-28T17:53:21.995Z,97975.59
2022-09-28T17:55:54.480Z,97983.38
2022-09-28T17:58:22.597Z,97983.91
2022-09-28T18:00:52.587Z,97986.69
2022-09-28T18:03:24.879Z,97988.13
2022-09-28T18:06:06.027Z,97995.46
2022-09-28T18:08:36.942Z,97994.52
2022-09-28T18:11:08.062Z,97996.89
2022-09-28T18:13:35.118Z,97999.55
2022-09-28T18:16:03.458Z,97993.94
2022-09-28T18:18:36.451Z,97995.80
2022-09-28T18:21:26.936Z,98000.84
2022-09-28T18:24:02.837Z,98000.75
2022-09-28T18:26:38.976Z,98005.61
2022-09-28T18:29:06.398Z,98005.48
2022-09-28T18:31:33.265Z,98008.54
2022-09-28T18:34:01.275Z,98005.24
2022-09-28T18:36:38.009Z,98011.69
2022-09-28T18:39:24.251Z,98014.91
2022-09-28T18:41:51.540Z,98016.31
2022-09-28T18:44:18.734Z,98015.75
2022-09-28T18:46:46.199Z,98015.43
2022-09-28T18:49:17.302Z,98018.30
2022-09-28T18:51:48.449Z,98022.03
2022-09-28T18:54:16.659Z,98023.34
2022-09-28T18:56:51.022Z,98026.84
2022-09-28T18:59:20.213Z,98028.23
2022-09-28T19:02:01.447Z,98030.71
2022-09-28T19:04:49.375Z,98030.98
2022-09-28T19:07:37.080Z,98035.02
2022-09-28T19:10:05.100Z,98037.84
2022-09-28T19:12:34.581Z,98037.84
2022-09-28T19:15:05.301Z,98037.02
2022-09-28T19:17:45.841Z,98037.20
2022-09-28T19:20:44.065Z,98035.88
2022-09-28T19:23:14.405Z,98041.27
2022-09-28T19:26:00.942Z,98041.70
2022-09-28T19:28:28.104Z,98036.96
2022-09-28T19:31:08.610Z,98036.59
2022-09-28T19:34:02.287Z,98039.68
2022-09-28T19:36:50.893Z,98040.80
2022-09-28T19:39:47.544Z,98044.00
2022-09-28T19:42:17.086Z,98044.04
2022-09-28T19:44:45.109Z,98046.14
2022-09-28T19:47:43.352Z,98046.46
2022-09-28T19:50:17.313Z,98044.33
2022-09-28T19:52:46.905Z,98044.50
2022-09-28T19:55:17.335Z,98048.14
2022-09-28T19:57:53.202Z,98051.28
2022-09-28T20:00:20.215Z,98056.08
2022-09-28T20:03:02.226Z,98055.35
2022-09-28T20:05:41.200Z,98061.38
2022-09-28T20:08:09.386Z,98065.68
2022-09-28T20:10:36.555Z,98067.70
2022-09-28T20:13:03.957Z,98071.42
2022-09-28T20:15:34.399Z,98078.16
2022-09-28T20:18:13.824Z,98088.20
2022-09-28T20:20:44.881Z,98087.92
2022-09-28T20:23:18.128Z,98094.41
2022-09-28T20:25:52.295Z,98095.45
2022-09-28T20:28:29.309Z,98096.06
2022-09-28T20:31:17.771Z,98098.31
2022-09-28T20:33:44.703Z,98099.55
2022-09-28T20:36:18.169Z,98102.66
2022-09-28T20:38:50.584Z,98099.98
2022-09-28T20:41:19.751Z,98099.47
2022-09-28T20:44:19.806Z,98100.99
2022-09-28T20:47:20.040Z,98108.96
2022-09-28T20:50:07.705Z,98109.95
2022-09-28T20:52:37.068Z,98109.11
2022-09-28T20:55:27.257Z,98111.61
2022-09-28T20:58:31.801Z,98117.64
2022-09-28T21:01:30.871Z,98117.20
2022-09-28T21:04:09.228Z,98119.77
2022-09-28T21:06:50.371Z,98123.90
2022-09-28T21:09:29.738Z,98124.45
2022-09-28T21:12:30.300Z,98121.06
2022-09-28T21:15:13.171Z,98122.73
2022-09-28T21:17:48.008Z,98125.88
2022-09-28T21:20:27.888Z,98127.73
2022-09-28T21:23:04.250Z,98132.39
2022-09-28T21:25:39.462Z,98136.92
2022-09-28T21:28:10.002Z,98140.65
2022-09-28T21:30:47.040Z,98144.55
2022-09-28T21:33:14.586Z,98149.25
2022-09-28T21:36:02.141Z,98153.02
2022-09-28T21:38:37.501Z,98160.20
2022-09-28T21:41:36.914Z,98163.23
2022-09-28T21:44:15.654Z,98164.87
2022-09-28T21:46:51.353Z,98163.16
2022-09-28T21:49:27.772Z,98168.43
2022-09-28T21:52:03.493Z,98172.65
2022-09-28T21:54:51.193Z,98175.34
2022-09-28T21:57:22.762Z,98178.81
2022-09-28T22:00:10.538Z,98179.09
2022-09-28T22:02:38.666Z,98188.23
2022-09-28T22:05:06.264Z,98193.20
2022-09-28T22:07:45.886Z,98190.17
2022-09-28T22:10:38.826Z,98191.18
2022-09-28T22:13:12.245Z,98192.87
2022-09-28T22:15:58.552Z,98194.67
2022-09-28T22:18:33.700Z,98194.54
2022-09-28T22:21:34.572Z,98197.82
2022-09-28T22:24:07.576Z,98200.20
2022-09-28T22:26:47.017Z,98201.27
2022-09-28T22:29:23.525Z,98204.42
2022-09-28T22:31:50.776Z,98206.33
2022-09-28T22:34:24.193Z,98208.52
2022-09-28T22:36:51.307Z,98209.29
2022-09-28T22:39:18.302Z,98212.44
2022-09-28T22:41:48.622Z,98210.48
2022-09-28T22:44:19.747Z,98209.08
2022-09-28T22:47:04.206Z,98215.96
2022-09-28T22:49:37.204Z,98220.63
2022-09-28T22:52:08.217Z,98222.80
2022-09-28T22:54:40.004Z,98223.36
2022-09-28T22:57:19.872Z,98221.46
2022-09-28T23:00:19.269Z,98219.33
2022-09-28T23:02:49.803Z,98220.08
2022-09-28T23:05:17.901Z,98226.60
2022-09-28T23:08:20.916Z,98229.95
2022-09-28T23:10:55.787Z,98234.77
2022-09-28T23:13:37.969Z,98233.21
2022-09-28T23:16:26.900Z,98234.13
2022-09-28T23:19:07.430Z,98230.69
2022-09-28T23:21:59.476Z,98234.23
2022-09-28T23:24:32.812Z,98235.36
2022-09-28T23:27:08.241Z,98235.33
2022-09-28T23:29:45.672Z,98236.98
2022-09-28T23:32:13.452Z,98236.44
2022-09-28T23:34:48.079Z,98234.77
2022-09-28T23:37:37.522Z,98234.11
2022-09-28T23:40:06.249Z,98240.08
2022-09-28T23:42:34.394Z,98240.36
2022-09-28T23:45:04.507Z,98242.26
2022-09-28T23:47:39.397Z,98244.94
2022-09-28T23:50:07.591Z,98248.95
2022-09-28T23:52:48.503Z,98248.88
2022-09-28T23:55:16.376Z,98248.88
2022-09-28T23:57:45.865Z,98249.73
